createdAt,value
2018-06-10T00:00:07.262Z,77.90
2018-06-10T00:02:35.767Z,78.20
2018-06-10T00:05:04.443Z,78.60
2018-06-10T00:07:32.987Z,78.70
2018-06-10T00:10:01.532Z,78.90
2018-06-10T00:12:30.012Z,79.10
2018-06-10T00:14:58.579Z,79.10
2018-06-10T00:17:27.104Z,79.00
2018-06-10T00:19:55.583Z,78.70
2018-06-10T00:22:24.060Z,78.30
2018-06-10T00:24:52.556Z,78.00
2018-06-10T00:27:21.111Z,77.40
2018-06-10T00:29:49.672Z,77.50
2018-06-10T00:32:18.157Z,78.40
2018-06-10T00:34:46.669Z,78.00
2018-06-10T00:37:15.143Z,77.80
2018-06-10T00:39:43.782Z,77.70
2018-06-10T00:42:12.340Z,78.40
2018-06-10T00:47:09.140Z,78.70
2018-06-10T00:49:37.771Z,78.80
2018-06-10T00:52:06.407Z,78.50
2018-06-10T00:54:34.887Z,78.70
2018-06-10T00:57:03.371Z,78.70
2018-06-10T00:59:31.916Z,78.60
2018-06-10T01:04:28.711Z,77.80
2018-06-10T01:06:57.204Z,78.20
2018-06-10T01:09:25.729Z,78.30
2018-06-10T01:11:54.219Z,78.50
2018-06-10T01:14:22.727Z,78.20
2018-06-10T01:16:51.256Z,78.30
2018-06-10T01:19:19.796Z,77.90
2018-06-10T01:21:48.388Z,77.30
2018-06-10T01:24:16.860Z,77.80
2018-06-10T01:26:50.306Z,77.00
2018-06-10T01:29:19.462Z,76.50
2018-06-10T01:31:48.155Z,76.50
2018-06-10T01:34:16.697Z,76.40
2018-06-10T01:36:45.263Z,76.50
2018-06-10T01:41:42.706Z,76.40
2018-06-10T01:44:11.260Z,76.60
2018-06-10T01:46:39.756Z,77.60
2018-06-10T01:49:08.256Z,77.40
2018-06-10T01:51:36.859Z,77.10
2018-06-10T01:54:05.801Z,76.80
2018-06-10T01:56:34.273Z,77.20
2018-06-10T01:59:02.781Z,77.00
2018-06-10T02:01:31.347Z,76.70
2018-06-10T02:03:59.862Z,76.50
2018-06-10T02:06:28.388Z,76.00
2018-06-10T02:08:56.868Z,75.60
2018-06-10T02:11:25.405Z,76.00
2018-06-10T02:13:53.883Z,75.70
2018-06-10T02:16:22.648Z,75.30
2018-06-10T02:18:51.116Z,75.30
2018-06-10T02:21:19.651Z,75.40
2018-06-10T02:23:48.223Z,75.30
2018-06-10T02:26:16.769Z,75.10
2018-06-10T02:28:45.211Z,76.00
2018-06-10T02:31:13.798Z,76.40
2018-06-10T02:33:42.319Z,77.80
2018-06-10T02:36:10.864Z,76.60
2018-06-10T02:38:39.381Z,76.50
2018-06-10T02:41:07.868Z,76.00
2018-06-10T02:43:36.348Z,76.30
2018-06-10T02:46:05.039Z,76.10
2018-06-10T02:48:33.676Z,75.70
2018-06-10T02:51:02.289Z,75.20
2018-06-10T02:53:30.792Z,75.30
2018-06-10T02:55:59.351Z,75.10
2018-06-10T02:58:27.860Z,74.90
2018-06-10T03:00:56.340Z,75.00
2018-06-10T03:03:24.830Z,74.80
2018-06-10T03:05:53.403Z,75.00
2018-06-10T03:08:21.920Z,75.00
2018-06-10T03:10:50.439Z,75.40
2018-06-10T03:13:18.987Z,75.00
2018-06-10T03:15:47.517Z,74.80
2018-06-10T03:18:15.995Z,74.40
2018-06-10T03:20:44.456Z,74.40
2018-06-10T03:23:12.994Z,75.50
2018-06-10T03:25:41.608Z,76.30
2018-06-10T03:28:10.148Z,77.00
2018-06-10T03:30:38.627Z,76.70
2018-06-10T03:33:07.071Z,76.70
2018-06-10T03:35:35.554Z,76.70
2018-06-10T03:38:04.158Z,76.80
2018-06-10T03:40:32.692Z,76.50
2018-06-10T03:43:01.292Z,76.70
2018-06-10T03:45:29.887Z,77.40
2018-06-10T03:47:58.376Z,77.70
2018-06-10T03:50:26.839Z,77.80
2018-06-10T03:52:55.336Z,77.70
2018-06-10T03:55:23.803Z,77.50
2018-06-10T03:57:52.318Z,77.40
2018-06-10T04:00:20.941Z,77.50
2018-06-10T04:02:49.403Z,76.70
2018-06-10T04:05:17.884Z,76.60
2018-06-10T04:07:46.415Z,76.50
2018-06-10T04:10:29.239Z,77.00
2018-06-10T04:12:57.761Z,77.40
2018-06-10T04:15:26.345Z,77.40
2018-06-10T04:17:54.805Z,77.10
2018-06-10T04:20:23.358Z,77.00
2018-06-10T04:22:51.867Z,76.00
2018-06-10T04:25:20.332Z,75.60
2018-06-10T04:27:48.870Z,75.60
2018-06-10T04:30:17.386Z,75.30
2018-06-10T04:32:45.937Z,74.90
2018-06-10T04:35:14.411Z,74.60
2018-06-10T04:37:42.935Z,74.90
2018-06-10T04:40:11.411Z,75.10
2018-06-10T04:42:39.914Z,74.90
2018-06-10T04:45:08.379Z,74.50
2018-06-10T04:47:36.992Z,75.30
2018-06-10T04:50:05.483Z,75.40
2018-06-10T04:52:34.008Z,75.00
2018-06-10T04:55:02.540Z,75.10
2018-06-10T04:57:31.200Z,75.20
2018-06-10T04:59:59.644Z,75.30
2018-06-10T05:02:28.189Z,74.70
2018-06-10T05:04:56.712Z,74.80
2018-06-10T05:07:25.245Z,75.80
2018-06-10T05:09:53.775Z,75.80
2018-06-10T05:12:22.370Z,75.80
2018-06-10T05:14:50.929Z,75.70
2018-06-10T05:17:19.527Z,75.80
2018-06-10T05:19:48.037Z,76.00
2018-06-10T05:22:16.583Z,75.70
2018-06-10T05:24:45.107Z,75.00
2018-06-10T05:27:13.650Z,74.90
2018-06-10T05:29:42.202Z,74.80
2018-06-10T05:32:10.751Z,73.90
2018-06-10T05:34:39.194Z,74.00
2018-06-10T05:37:07.680Z,73.90
2018-06-10T05:39:36.190Z,74.40
2018-06-10T05:42:04.716Z,73.90
2018-06-10T05:44:33.312Z,74.20
2018-06-10T05:47:01.994Z,73.70
2018-06-10T05:49:30.571Z,73.30
2018-06-10T05:51:59.064Z,73.20
2018-06-10T05:54:27.612Z,73.20
2018-06-10T05:56:56.103Z,73.00
2018-06-10T06:01:52.882Z,73.70
2018-06-10T06:04:21.423Z,74.30
2018-06-10T06:06:50.036Z,74.60
2018-06-10T06:09:18.503Z,74.90
2018-06-10T06:11:47.017Z,74.80
2018-06-10T06:14:15.502Z,74.70
2018-06-10T06:16:44.131Z,74.40
2018-06-10T06:19:12.605Z,74.60
2018-06-10T06:21:41.182Z,74.70
2018-06-10T06:24:09.723Z,74.60
2018-06-10T06:26:38.223Z,74.90
2018-06-10T06:29:06.744Z,74.80
2018-06-10T06:31:35.275Z,74.20
2018-06-10T06:34:03.759Z,73.90
2018-06-10T06:36:32.366Z,73.70
2018-06-10T06:39:00.827Z,73.90
2018-06-10T06:41:29.356Z,73.50
2018-06-10T06:43:57.939Z,73.20
2018-06-10T06:46:26.791Z,73.40
2018-06-10T06:48:55.247Z,72.20
2018-06-10T06:51:23.848Z,71.60
2018-06-10T06:53:52.400Z,70.90
2018-06-10T06:56:20.883Z,70.30
2018-06-10T07:01:17.540Z,70.90
2018-06-10T07:03:46.019Z,70.40
2018-06-10T07:08:42.755Z,70.70
2018-06-10T07:11:11.291Z,71.00
2018-06-10T07:13:40.020Z,70.60
2018-06-10T07:16:08.588Z,70.20
2018-06-10T07:18:37.188Z,69.80
2018-06-10T07:21:05.725Z,69.60
2018-06-10T07:23:34.262Z,68.80
2018-06-10T07:26:02.867Z,68.60
2018-06-10T07:28:31.352Z,68.40
2018-06-10T07:31:00.038Z,69.10
2018-06-10T07:33:28.577Z,68.90
2018-06-10T07:35:57.057Z,68.70
2018-06-10T07:38:25.643Z,69.00
2018-06-10T07:40:54.219Z,67.80
2018-06-10T07:43:22.687Z,67.70
2018-06-10T07:45:51.167Z,67.00
2018-06-10T07:48:19.742Z,67.10
2018-06-10T07:50:48.174Z,66.60
2018-06-10T07:53:16.763Z,66.00
2018-06-10T07:55:45.386Z,66.40
2018-06-10T07:58:13.917Z,65.20
2018-06-10T08:00:42.556Z,64.40
2018-06-10T08:03:11.100Z,64.00
2018-06-10T08:05:39.620Z,62.80
2018-06-10T08:08:08.115Z,62.30
2018-06-10T08:10:36.635Z,62.30
2018-06-10T08:13:05.215Z,63.40
2018-06-10T08:15:33.736Z,62.70
2018-06-10T08:18:02.369Z,63.50
2018-06-10T08:20:30.904Z,63.20
2018-06-10T08:22:59.380Z,63.20
2018-06-10T08:25:28.103Z,62.80
2018-06-10T08:27:56.585Z,63.40
2018-06-10T08:30:25.260Z,63.00
2018-06-10T08:32:53.788Z,63.30
2018-06-10T08:35:22.440Z,63.20
2018-06-10T08:37:50.939Z,62.90
2018-06-10T08:40:19.481Z,63.20
2018-06-10T08:42:48.065Z,63.40
2018-06-10T08:45:16.567Z,62.80
2018-06-10T08:47:45.175Z,63.10
2018-06-10T08:50:13.683Z,62.80
2018-06-10T08:52:42.217Z,62.70
2018-06-10T08:55:10.785Z,62.00
2018-06-10T08:57:39.437Z,62.40
2018-06-10T09:00:08.180Z,64.10
2018-06-10T09:02:36.750Z,63.50
2018-06-10T09:05:05.293Z,63.90
2018-06-10T09:07:33.916Z,64.80
2018-06-10T09:10:02.488Z,64.00
2018-06-10T09:12:31.063Z,63.30
2018-06-10T09:14:59.527Z,63.90
2018-06-10T09:17:28.062Z,63.70
2018-06-10T09:19:56.553Z,64.10
2018-06-10T09:22:25.199Z,64.20
2018-06-10T09:24:53.586Z,62.70
2018-06-10T09:27:22.172Z,62.70
2018-06-10T09:29:50.767Z,62.90
2018-06-10T09:32:19.338Z,63.50
2018-06-10T09:34:47.931Z,62.80
2018-06-10T09:37:16.544Z,62.70
2018-06-10T09:39:45.343Z,62.20
2018-06-10T09:42:13.851Z,61.00
2018-06-10T09:44:42.324Z,61.70
2018-06-10T09:52:07.189Z,60.90
2018-06-10T09:54:35.643Z,59.50
2018-06-10T09:57:04.191Z,61.50
2018-06-10T09:59:32.887Z,62.00
2018-06-10T10:02:01.539Z,59.50
2018-06-10T10:04:30.158Z,61.90
2018-06-10T10:06:58.651Z,61.70
2018-06-10T10:11:55.556Z,62.00
2018-06-10T10:14:24.183Z,62.80
2018-06-10T10:16:52.635Z,61.10
2018-06-10T10:19:21.155Z,61.90
2018-06-10T10:24:17.929Z,62.90
2018-06-10T10:29:14.635Z,63.30
2018-06-10T10:31:43.079Z,62.30
2018-06-10T10:34:11.651Z,63.60
2018-06-10T10:36:40.173Z,63.50
2018-06-10T10:39:08.702Z,62.30
2018-06-10T10:41:37.225Z,62.60
2018-06-10T10:44:05.827Z,62.60
2018-06-10T10:46:34.456Z,62.30
2018-06-10T10:49:03.127Z,62.80
2018-06-10T10:51:31.748Z,63.20
2018-06-10T10:54:00.271Z,62.70
2018-06-10T10:56:28.807Z,61.20
2018-06-10T10:58:57.299Z,62.10
2018-06-10T11:01:25.858Z,62.40
2018-06-10T11:03:54.427Z,61.10
2018-06-10T11:06:22.947Z,60.70
2018-06-10T11:08:51.495Z,60.20
2018-06-10T11:11:20.055Z,60.70
2018-06-10T11:13:48.691Z,61.60
2018-06-10T11:16:17.199Z,62.90
2018-06-10T11:18:45.763Z,62.50
2018-06-10T11:21:14.279Z,60.00
2018-06-10T11:23:43.487Z,61.20
2018-06-10T11:26:11.964Z,61.40
2018-06-10T11:28:40.562Z,63.30
2018-06-10T11:31:09.087Z,61.60
2018-06-10T11:33:37.604Z,62.20
2018-06-10T11:36:06.191Z,61.80
2018-06-10T11:38:34.956Z,62.60
2018-06-10T11:41:03.491Z,62.60
2018-06-10T11:43:31.939Z,61.20
2018-06-10T11:46:00.588Z,59.30
2018-06-10T11:50:57.366Z,58.90
2018-06-10T11:53:25.869Z,60.10
2018-06-10T11:55:55.970Z,60.40
2018-06-10T11:58:24.559Z,59.00
2018-06-10T12:00:53.103Z,59.30
2018-06-10T12:03:21.698Z,59.90
2018-06-10T12:05:50.263Z,60.30
2018-06-10T12:08:19.798Z,60.70
2018-06-10T12:10:48.423Z,60.90
2018-06-10T12:13:16.952Z,61.60
2018-06-10T12:15:45.496Z,61.50
2018-06-10T12:18:14.175Z,61.00
2018-06-10T12:20:42.727Z,62.90
2018-06-10T12:23:11.296Z,61.30
2018-06-10T12:25:39.822Z,61.40
2018-06-10T12:28:09.312Z,62.30
2018-06-10T12:30:37.950Z,62.00
2018-06-10T12:33:06.507Z,60.40
2018-06-10T12:35:35.029Z,61.90
2018-06-10T12:38:03.620Z,62.50
2018-06-10T12:40:32.222Z,62.60
2018-06-10T12:43:01.028Z,61.70
2018-06-10T12:45:29.632Z,61.50
2018-06-10T12:47:58.283Z,60.50
2018-06-10T12:50:26.904Z,60.20
2018-06-10T12:52:55.640Z,60.80
2018-06-10T12:55:24.192Z,59.00
2018-06-10T12:57:52.740Z,58.50
2018-06-10T13:00:21.304Z,59.60
2018-06-10T13:02:49.971Z,58.90
2018-06-10T13:05:18.531Z,59.20
2018-06-10T13:10:15.453Z,58.70
2018-06-10T13:12:44.186Z,58.40
2018-06-10T13:15:12.787Z,56.80
2018-06-10T13:17:41.341Z,58.40
2018-06-10T13:20:10.032Z,58.30
2018-06-10T13:22:38.607Z,57.00
2018-06-10T13:25:07.245Z,58.00
2018-06-10T13:27:35.924Z,56.50
2018-06-10T13:30:06.363Z,57.50
2018-06-10T13:32:35.028Z,58.60
2018-06-10T13:35:03.669Z,59.20
2018-06-10T13:37:32.260Z,59.70
2018-06-10T13:40:00.949Z,59.90
2018-06-10T13:42:29.439Z,60.00
2018-06-10T13:47:26.333Z,60.40
2018-06-10T13:49:54.989Z,60.60
2018-06-10T13:52:23.619Z,61.20
2018-06-10T13:54:52.199Z,61.10
2018-06-10T13:57:20.735Z,61.10
2018-06-10T13:59:49.488Z,58.80
2018-06-10T14:02:18.108Z,57.40
2018-06-10T14:04:46.684Z,58.30
2018-06-10T14:07:15.295Z,58.10
2018-06-10T14:09:43.854Z,58.50
2018-06-10T14:12:12.401Z,58.70
2018-06-10T14:14:41.089Z,56.90
2018-06-10T14:17:09.670Z,54.60
2018-06-10T14:19:38.185Z,55.00
2018-06-10T14:22:06.946Z,54.10
2018-06-10T14:24:35.707Z,54.60
2018-06-10T14:27:04.310Z,55.40
2018-06-10T14:29:33.056Z,54.10
2018-06-10T14:32:02.248Z,53.40
2018-06-10T14:34:30.888Z,55.70
2018-06-10T14:36:59.549Z,53.00
2018-06-10T14:39:28.376Z,53.20
2018-06-10T14:41:56.923Z,55.00
2018-06-10T14:44:25.575Z,55.30
2018-06-10T14:46:54.069Z,56.00
2018-06-10T14:49:22.706Z,56.70
2018-06-10T14:51:51.262Z,56.30
2018-06-10T14:54:19.870Z,56.30
2018-06-10T14:56:48.498Z,53.70
2018-06-10T14:59:17.163Z,53.10
2018-06-10T15:01:46.034Z,55.70
2018-06-10T15:04:14.614Z,54.40
2018-06-10T15:06:43.279Z,54.00
2018-06-10T15:09:11.884Z,54.70
2018-06-10T15:11:40.827Z,53.90
2018-06-10T15:14:09.466Z,54.30
2018-06-10T15:16:37.999Z,53.90
2018-06-10T15:19:06.582Z,55.30
2018-06-10T15:21:35.147Z,54.30
2018-06-10T15:24:03.801Z,54.20
2018-06-10T15:26:32.338Z,54.90
2018-06-10T15:29:01.001Z,56.00
2018-06-10T15:31:29.543Z,54.90
2018-06-10T15:33:58.167Z,55.40
2018-06-10T15:38:54.816Z,54.00
2018-06-10T15:41:23.703Z,54.60
2018-06-10T15:43:52.255Z,54.30
2018-06-10T15:46:21.226Z,55.40
2018-06-10T15:48:49.774Z,52.90
2018-06-10T15:51:18.392Z,52.90
2018-06-10T15:53:47.424Z,53.90
2018-06-10T15:56:16.047Z,55.20
2018-06-10T15:58:44.633Z,55.20
2018-06-10T16:01:13.629Z,53.20
2018-06-10T16:03:42.200Z,54.60
2018-06-10T16:06:10.787Z,55.30
2018-06-10T16:11:07.614Z,56.70
2018-06-10T16:13:36.277Z,53.70
2018-06-10T16:16:04.825Z,55.40
2018-06-10T16:18:33.858Z,57.40
2018-06-10T16:21:02.505Z,57.20
2018-06-10T16:23:31.023Z,55.00
2018-06-10T16:25:59.621Z,56.60
2018-06-10T16:28:28.259Z,57.80
2018-06-10T16:30:56.831Z,58.30
2018-06-10T16:33:25.504Z,57.90
2018-06-10T16:35:54.110Z,57.60
2018-06-10T16:38:22.644Z,57.40
2018-06-10T16:40:51.223Z,58.40
2018-06-10T16:43:19.741Z,57.20
2018-06-10T16:45:48.261Z,58.40
2018-06-10T16:48:16.779Z,58.20
2018-06-10T16:50:45.451Z,57.50
2018-06-10T16:53:14.099Z,59.10
2018-06-10T16:55:43.522Z,59.10
2018-06-10T16:58:12.087Z,59.80
2018-06-10T17:00:40.758Z,59.30
2018-06-10T17:03:09.237Z,58.70
2018-06-10T17:05:37.903Z,57.70
2018-06-10T17:08:06.626Z,57.80
2018-06-10T17:10:35.320Z,56.20
2018-06-10T17:13:03.848Z,56.90
2018-06-10T17:15:32.440Z,59.20
2018-06-10T17:18:01.505Z,64.10
2018-06-10T17:20:30.358Z,73.50
2018-06-10T17:22:58.908Z,76.90
2018-06-10T17:25:27.423Z,78.70
2018-06-10T17:27:56.020Z,78.60
2018-06-10T17:30:24.595Z,79.30
2018-06-10T17:32:53.207Z,79.70
2018-06-10T17:35:21.761Z,79.00
2018-06-10T17:37:50.905Z,79.40
2018-06-10T17:40:19.515Z,80.10
2018-06-10T17:42:48.073Z,80.10
2018-06-10T17:45:16.564Z,80.30
2018-06-10T17:47:45.119Z,80.50
2018-06-10T17:50:13.841Z,79.70
2018-06-10T17:52:42.656Z,80.50
2018-06-10T17:55:11.199Z,80.50
2018-06-10T17:57:39.764Z,79.20
2018-06-10T18:00:08.776Z,79.20
2018-06-10T18:02:37.311Z,79.70
2018-06-10T18:05:05.924Z,78.10
2018-06-10T18:07:34.507Z,78.20
2018-06-10T18:10:03.217Z,78.50
2018-06-10T18:12:31.751Z,78.60
2018-06-10T18:15:00.348Z,77.40
2018-06-10T18:17:28.886Z,77.50
2018-06-10T18:19:57.435Z,78.50
2018-06-10T18:22:25.961Z,78.00
2018-06-10T18:24:54.800Z,78.10
2018-06-10T18:27:23.282Z,78.50
2018-06-10T18:29:51.867Z,78.40
2018-06-10T18:32:20.391Z,77.00
2018-06-10T18:34:48.916Z,77.10
2018-06-10T18:37:17.457Z,77.90
2018-06-10T18:39:46.352Z,78.00
2018-06-10T18:42:15.344Z,77.40
2018-06-10T18:44:43.888Z,77.10
2018-06-10T18:47:12.521Z,77.00
2018-06-10T18:49:41.138Z,77.20
2018-06-10T18:52:09.753Z,77.80
2018-06-10T18:54:38.676Z,76.60
2018-06-10T18:57:07.162Z,76.10
2018-06-10T18:59:35.701Z,76.20
2018-06-10T19:02:04.326Z,76.60
2018-06-10T19:04:32.916Z,76.60
2018-06-10T19:07:01.476Z,76.90
2018-06-10T19:09:30.080Z,77.30
2018-06-10T19:11:58.664Z,76.50
2018-06-10T19:14:27.211Z,76.90
2018-06-10T19:16:55.839Z,75.90
2018-06-10T19:19:24.423Z,75.80
2018-06-10T19:21:53.316Z,75.90
2018-06-10T19:24:21.894Z,76.30
2018-06-10T19:26:50.434Z,75.80
2018-06-10T19:29:19.080Z,75.60
2018-06-10T19:31:47.628Z,76.10
2018-06-10T19:34:16.476Z,75.90
2018-06-10T19:36:45.158Z,75.80
2018-06-10T19:39:13.698Z,75.90
2018-06-10T19:41:42.344Z,75.90
2018-06-10T19:44:10.892Z,76.30
2018-06-10T19:46:39.557Z,76.40
2018-06-10T19:49:08.241Z,76.40
2018-06-10T19:51:36.760Z,76.70
2018-06-10T19:54:05.906Z,76.90
2018-06-10T19:56:34.824Z,77.00
2018-06-10T19:59:03.716Z,77.60
2018-06-10T20:01:32.268Z,76.80
2018-06-10T20:06:29.718Z,76.10
2018-06-10T20:08:58.415Z,76.30
2018-06-10T20:11:27.192Z,76.50
2018-06-10T20:13:55.734Z,76.80
2018-06-10T20:16:24.271Z,76.90
2018-06-10T20:18:52.890Z,77.00
2018-06-10T20:21:21.427Z,77.00
2018-06-10T20:23:49.979Z,76.80
2018-06-10T20:26:18.555Z,77.00
2018-06-10T20:28:47.107Z,77.20
2018-06-10T20:31:15.675Z,77.30
2018-06-10T20:33:44.382Z,77.40
2018-06-10T20:36:12.931Z,77.30
2018-06-10T20:38:41.466Z,77.20
2018-06-10T20:41:10.051Z,77.20
2018-06-10T20:43:38.531Z,77.10
2018-06-10T20:46:07.078Z,76.90
2018-06-10T20:48:35.633Z,76.60
2018-06-10T20:51:04.183Z,76.40
2018-06-10T20:53:32.711Z,76.60
2018-06-10T20:56:01.402Z,76.70
2018-06-10T20:58:29.895Z,76.40
2018-06-10T21:00:58.912Z,75.70
2018-06-10T21:03:27.514Z,75.30
2018-06-10T21:05:56.097Z,75.10
2018-06-10T21:08:24.672Z,75.00
2018-06-10T21:10:53.214Z,75.30
2018-06-10T21:13:21.749Z,75.30
2018-06-10T21:15:50.232Z,75.40
2018-06-10T21:18:18.743Z,75.60
2018-06-10T21:20:47.333Z,75.40
2018-06-10T21:23:15.959Z,75.80
2018-06-10T21:25:44.502Z,75.60
2018-06-10T21:28:13.026Z,75.60
2018-06-10T21:30:41.537Z,75.20
2018-06-10T21:33:10.065Z,74.90
2018-06-10T21:35:38.844Z,75.20
2018-06-10T21:38:07.415Z,75.20
2018-06-10T21:40:35.899Z,75.60
2018-06-10T21:43:04.551Z,75.20
2018-06-10T21:45:33.056Z,74.80
2018-06-10T21:48:01.579Z,75.00
2018-06-10T21:50:30.109Z,75.50
2018-06-10T21:52:58.619Z,75.20
2018-06-10T21:55:27.175Z,75.20
2018-06-10T21:57:55.829Z,75.20
2018-06-10T22:00:25.659Z,75.30
2018-06-10T22:02:54.282Z,75.90
2018-06-10T22:05:22.898Z,74.70
2018-06-10T22:07:51.464Z,75.00
2018-06-10T22:10:20.238Z,75.10
2018-06-10T22:12:48.802Z,75.00
2018-06-10T22:15:17.380Z,75.30
2018-06-10T22:17:45.984Z,75.20
2018-06-10T22:20:14.537Z,75.00
2018-06-10T22:22:43.108Z,74.70
2018-06-10T22:27:40.022Z,74.80
2018-06-10T22:30:08.637Z,74.50
2018-06-10T22:32:37.138Z,74.20
2018-06-10T22:35:05.710Z,74.50
2018-06-10T22:37:34.325Z,74.30
2018-06-10T22:40:03.267Z,74.20
2018-06-10T22:42:32.466Z,73.90
2018-06-10T22:45:01.024Z,74.40
2018-06-10T22:47:29.527Z,74.40
2018-06-10T22:49:58.110Z,74.20
2018-06-10T22:52:26.598Z,74.20
2018-06-10T22:54:55.206Z,74.30
2018-06-10T22:57:23.715Z,74.40
2018-06-10T22:59:52.243Z,74.20
2018-06-10T23:02:21.134Z,74.70
2018-06-10T23:04:49.657Z,74.50
2018-06-10T23:07:18.564Z,74.60
2018-06-10T23:09:47.071Z,73.90
2018-06-10T23:12:15.706Z,74.10
2018-06-10T23:14:44.181Z,73.80
2018-06-10T23:17:12.948Z,74.30
2018-06-10T23:19:41.532Z,74.40
2018-06-10T23:22:10.088Z,74.50
2018-06-10T23:24:39.315Z,74.10
2018-06-10T23:27:07.848Z,74.60
2018-06-10T23:29:36.409Z,74.70
2018-06-10T23:32:04.923Z,74.80
2018-06-10T23:34:33.411Z,74.60
2018-06-10T23:37:02.224Z,74.60
2018-06-10T23:39:30.779Z,74.40
2018-06-10T23:41:59.285Z,74.40
2018-06-10T23:44:28.196Z,73.90
2018-06-10T23:46:56.714Z,74.20
2018-06-10T23:49:25.243Z,74.20
2018-06-10T23:51:53.744Z,74.30
2018-06-10T23:54:22.274Z,74.00
2018-06-10T23:56:50.914Z,74.10
2018-06-10T23:59:19.392Z,74.30
